createdAt,value
2023-01-30T00:02:30.822Z,9.95
2023-01-30T00:07:29.716Z,8.65
2023-01-30T00:12:28.517Z,9.70
2023-01-30T00:17:27.311Z,8.27
2023-01-30T00:22:26.121Z,9.55
2023-01-30T00:27:24.976Z,10.25
2023-01-30T00:32:27.626Z,8.10
2023-01-30T00:37:29.470Z,9.40
2023-01-30T00:42:48.214Z,11.07
2023-01-30T00:47:49.117Z,8.90
2023-01-30T00:52:48.019Z,8.43
2023-01-30T00:57:46.755Z,7.57
2023-01-30T01:02:45.639Z,8.25
2023-01-30T01:07:44.454Z,9.75
2023-01-30T01:12:44.751Z,7.05
2023-01-30T01:17:43.731Z,7.47
2023-01-30T01:22:42.595Z,9.52
2023-01-30T01:27:41.383Z,6.63
2023-01-30T01:32:40.445Z,11.23
2023-01-30T01:37:41.399Z,7.43
2023-01-30T01:42:40.677Z,8.30
2023-01-30T01:47:58.126Z,8.90
2023-01-30T01:53:00.949Z,10.77
2023-01-30T01:58:08.056Z,9.52
2023-01-30T02:03:12.718Z,11.25
2023-01-30T02:08:32.150Z,8.13
2023-01-30T02:13:31.965Z,10.40
2023-01-30T02:18:32.719Z,11.93
2023-01-30T02:23:44.581Z,11.75
2023-01-30T02:29:22.188Z,7.25
2023-01-30T02:34:44.637Z,8.90
2023-01-30T02:39:53.942Z,10.13
2023-01-30T02:44:58.626Z,10.23
2023-01-30T02:50:16.024Z,9.30
2023-01-30T02:55:33.219Z,7.82
2023-01-30T03:00:44.902Z,9.57
2023-01-30T03:05:59.905Z,7.75
2023-01-30T03:11:02.205Z,10.23
2023-01-30T03:16:18.257Z,11.15
2023-01-30T03:21:17.965Z,8.85
2023-01-30T03:26:21.454Z,8.15
2023-01-30T03:31:21.394Z,12.05
2023-01-30T03:36:20.272Z,9.20
2023-01-30T03:41:19.187Z,7.03
2023-01-30T03:46:18.060Z,8.88
2023-01-30T03:51:17.240Z,10.07
2023-01-30T03:56:16.133Z,10.93
2023-01-30T04:01:15.986Z,8.02
2023-01-30T04:06:15.233Z,6.82
2023-01-30T04:11:14.425Z,5.57
2023-01-30T04:16:19.419Z,8.30
2023-01-30T04:21:36.761Z,7.78
2023-01-30T04:26:35.765Z,8.93
2023-01-30T04:31:34.710Z,7.03
2023-01-30T04:36:37.838Z,7.63
2023-01-30T04:41:36.716Z,8.57
2023-01-30T04:46:36.325Z,6.95
2023-01-30T04:51:35.479Z,10.45
2023-01-30T04:56:34.322Z,9.73
2023-01-30T05:01:36.396Z,9.80
2023-01-30T05:06:36.519Z,7.53
2023-01-30T05:11:35.343Z,6.78
2023-01-30T05:16:34.111Z,9.75
2023-01-30T05:21:32.820Z,7.85
2023-01-30T05:26:32.380Z,9.10
2023-01-30T05:31:31.243Z,8.55
2023-01-30T05:36:30.074Z,6.38
2023-01-30T05:41:28.812Z,5.15
2023-01-30T05:46:27.599Z,6.10
2023-01-30T05:51:27.497Z,8.65
2023-01-30T05:56:26.203Z,5.85
2023-01-30T06:01:27.247Z,7.47
2023-01-30T06:06:25.990Z,5.70
2023-01-30T06:11:25.171Z,7.72
2023-01-30T06:16:24.180Z,7.45
2023-01-30T06:21:23.018Z,7.60
2023-01-30T06:26:21.775Z,7.63
2023-01-30T06:31:20.771Z,10.13
2023-01-30T06:36:19.600Z,7.03
2023-01-30T06:41:18.351Z,8.63
2023-01-30T06:46:17.252Z,7.95
2023-01-30T06:51:16.092Z,6.40
2023-01-30T06:56:14.772Z,5.20
2023-01-30T07:01:14.902Z,7.10
2023-01-30T07:06:13.638Z,8.27
2023-01-30T07:11:12.413Z,8.80
2023-01-30T07:16:11.136Z,9.57
2023-01-30T07:21:09.886Z,9.95
2023-01-30T07:26:08.631Z,9.63
2023-01-30T07:31:07.296Z,5.88
2023-01-30T07:36:06.324Z,6.63
2023-01-30T07:41:05.278Z,6.82
2023-01-30T07:46:04.073Z,7.38
2023-01-30T07:51:02.846Z,8.40
2023-01-30T07:56:10.005Z,6.47
2023-01-30T08:01:08.911Z,5.55
2023-01-30T08:06:07.869Z,4.53
2023-01-30T08:11:06.677Z,5.07
2023-01-30T08:16:07.364Z,5.82
2023-01-30T08:21:14.384Z,5.13
2023-01-30T08:26:13.170Z,6.85
2023-01-30T08:31:14.122Z,4.80
2023-01-30T08:36:12.968Z,4.50
2023-01-30T08:41:11.753Z,4.47
2023-01-30T08:46:10.517Z,3.72
2023-01-30T08:51:09.300Z,5.30
2023-01-30T08:56:08.115Z,5.28
2023-01-30T09:01:07.486Z,3.70
2023-01-30T09:06:06.376Z,4.00
2023-01-30T09:11:06.220Z,3.60
2023-01-30T09:16:07.096Z,4.10
2023-01-30T09:21:06.272Z,2.97
2023-01-30T09:26:05.919Z,3.15
2023-01-30T09:31:05.060Z,2.40
2023-01-30T09:36:04.172Z,4.78
2023-01-30T09:41:35.946Z,3.05
2023-01-30T09:46:53.987Z,2.58
2023-01-30T09:52:02.294Z,2.08
2023-01-30T09:57:01.100Z,2.80
2023-01-30T10:02:09.166Z,3.78
2023-01-30T10:07:15.410Z,3.70
2023-01-30T10:12:23.099Z,2.80
2023-01-30T10:17:57.105Z,2.45
2023-01-30T10:23:18.106Z,1.23
2023-01-30T10:28:35.243Z,1.50
2023-01-30T10:33:44.977Z,2.83
2023-01-30T10:38:51.172Z,2.70
2023-01-30T10:44:10.143Z,1.80
2023-01-30T10:49:12.522Z,2.47
2023-01-30T10:54:13.467Z,1.40
2023-01-30T10:59:43.217Z,2.13
2023-01-30T11:04:58.336Z,3.13
2023-01-30T11:09:58.849Z,2.00
2023-01-30T11:14:59.884Z,1.27
2023-01-30T11:20:05.760Z,1.50
2023-01-30T11:25:14.019Z,2.28
2023-01-30T11:30:15.315Z,1.33
2023-01-30T11:35:14.033Z,1.90
2023-01-30T11:40:19.344Z,2.13
2023-01-30T11:45:19.817Z,1.55
2023-01-30T11:50:24.296Z,1.25
2023-01-30T11:55:27.922Z,2.65
2023-01-30T12:00:38.784Z,2.08
2023-01-30T12:05:45.376Z,2.40
2023-01-30T12:10:46.741Z,5.00
2023-01-30T12:15:48.619Z,1.60
2023-01-30T12:21:02.231Z,4.15
2023-01-30T12:26:15.313Z,5.10
2023-01-30T12:31:21.622Z,2.30
2023-01-30T12:36:25.726Z,2.53
2023-01-30T12:42:00.109Z,3.38
2023-01-30T12:47:34.921Z,1.67
2023-01-30T12:52:51.993Z,3.60
2023-01-30T12:58:14.810Z,5.05
2023-01-30T13:03:26.945Z,2.08
2023-01-30T13:08:45.813Z,4.38
2023-01-30T13:14:13.624Z,4.75
2023-01-30T13:19:25.446Z,2.72
2023-01-30T13:24:50.490Z,4.72
2023-01-30T13:29:50.417Z,2.70
2023-01-30T13:34:50.635Z,5.40
2023-01-30T13:40:13.435Z,3.67
2023-01-30T13:45:23.184Z,3.55
2023-01-30T13:50:27.214Z,3.22
2023-01-30T13:55:30.829Z,4.40
2023-01-30T14:05:50.939Z,4.57
2023-01-30T14:10:50.121Z,5.03
2023-01-30T14:16:02.038Z,1.67
2023-01-30T14:21:22.606Z,1.73
2023-01-30T14:26:40.069Z,5.63
2023-01-30T14:31:50.093Z,3.25
2023-01-30T14:36:51.590Z,2.63
2023-01-30T14:42:19.545Z,3.20
2023-01-30T14:47:36.122Z,4.57
2023-01-30T14:52:42.152Z,3.28
2023-01-30T14:57:54.909Z,2.38
2023-01-30T15:03:17.410Z,6.15
2023-01-30T15:08:27.124Z,4.38
2023-01-30T15:13:35.144Z,2.20
2023-01-30T15:18:43.508Z,5.57
2023-01-30T15:24:04.280Z,3.88
2023-01-30T15:29:31.267Z,3.13
2023-01-30T15:34:38.381Z,1.58
2023-01-30T15:39:37.142Z,3.72
2023-01-30T15:44:45.062Z,4.43
2023-01-30T15:49:46.765Z,2.83
2023-01-30T15:54:51.416Z,5.88
2023-01-30T15:59:50.922Z,1.88
2023-01-30T16:04:49.824Z,5.43
2023-01-30T16:10:06.896Z,5.40
2023-01-30T16:15:27.573Z,5.40
2023-01-30T16:20:26.629Z,5.22
2023-01-30T16:25:30.138Z,3.80
2023-01-30T16:30:29.957Z,3.83
2023-01-30T16:35:31.451Z,6.05
2023-01-30T16:40:43.520Z,6.10
2023-01-30T16:45:54.754Z,2.45
2023-01-30T16:50:59.692Z,3.55
2023-01-30T16:55:59.519Z,4.40
2023-01-30T17:01:01.108Z,3.45
2023-01-30T17:06:06.411Z,5.38
2023-01-30T17:11:05.615Z,9.95
2023-01-30T17:16:31.784Z,3.45
2023-01-30T17:21:42.819Z,3.58
2023-01-30T17:26:42.315Z,7.07
2023-01-30T17:31:48.663Z,6.95
2023-01-30T17:36:47.923Z,7.80
2023-01-30T17:41:50.586Z,4.65
2023-01-30T17:46:50.017Z,4.43
2023-01-30T17:51:50.131Z,4.00
2023-01-30T17:56:54.018Z,6.50
2023-01-30T18:01:53.347Z,3.97
2023-01-30T18:07:03.980Z,3.00
2023-01-30T18:12:03.152Z,1.88
2023-01-30T18:17:02.190Z,3.97
2023-01-30T18:22:01.419Z,7.50
2023-01-30T18:27:01.804Z,2.53
2023-01-30T18:32:05.779Z,4.10
2023-01-30T18:37:04.618Z,5.38
2023-01-30T18:42:04.135Z,5.95
2023-01-30T18:47:03.402Z,10.70
2023-01-30T18:52:02.117Z,3.95
2023-01-30T18:57:00.934Z,5.30
2023-01-30T19:01:59.644Z,6.05
2023-01-30T19:06:58.465Z,5.82
2023-01-30T19:12:15.852Z,2.70
2023-01-30T19:17:16.573Z,5.13
2023-01-30T19:22:17.225Z,5.97
2023-01-30T19:27:17.043Z,5.25
2023-01-30T19:32:16.080Z,2.78
2023-01-30T19:37:14.816Z,6.75
2023-01-30T19:42:14.373Z,5.93
2023-01-30T19:47:13.173Z,5.85
2023-01-30T19:52:12.245Z,6.00
2023-01-30T19:57:11.070Z,3.58
2023-01-30T20:02:10.329Z,4.22
2023-01-30T20:07:09.035Z,8.93
2023-01-30T20:12:07.832Z,5.40
2023-01-30T20:17:06.721Z,7.82
2023-01-30T20:22:08.191Z,5.68
2023-01-30T20:27:06.936Z,3.05
2023-01-30T20:32:05.780Z,7.47
2023-01-30T20:37:04.649Z,7.65
2023-01-30T20:42:05.339Z,5.97
2023-01-30T20:47:04.652Z,9.00
2023-01-30T20:52:04.091Z,6.85
2023-01-30T20:57:04.974Z,11.00
2023-01-30T21:02:04.283Z,9.38
2023-01-30T21:07:03.524Z,6.72
2023-01-30T21:12:02.399Z,2.50
2023-01-30T21:17:01.591Z,11.00
2023-01-30T21:22:04.516Z,9.43
2023-01-30T21:27:03.890Z,9.82
2023-01-30T21:32:02.848Z,5.10
2023-01-30T21:37:20.334Z,5.60
2023-01-30T21:42:37.844Z,3.55
2023-01-30T21:47:37.094Z,7.32
2023-01-30T21:52:36.693Z,6.45
2023-01-30T21:57:40.022Z,5.78
2023-01-30T22:02:39.116Z,9.20
2023-01-30T22:07:37.888Z,3.08
2023-01-30T22:12:38.700Z,5.63
2023-01-30T22:17:37.524Z,4.63
2023-01-30T22:22:36.312Z,2.80
2023-01-30T22:27:35.069Z,4.75
2023-01-30T22:32:33.846Z,5.38
2023-01-30T22:37:32.829Z,1.95
2023-01-30T22:42:31.743Z,4.72
2023-01-30T22:47:30.712Z,5.40
2023-01-30T22:52:29.414Z,7.10
2023-01-30T22:57:28.455Z,5.22
2023-01-30T23:02:27.403Z,8.18
2023-01-30T23:07:26.218Z,4.30
2023-01-30T23:12:43.719Z,5.38
2023-01-30T23:18:01.049Z,8.13
2023-01-30T23:22:59.788Z,7.25
2023-01-30T23:27:59.980Z,6.78
2023-01-30T23:32:58.712Z,9.13
2023-01-30T23:38:15.721Z,5.93
2023-01-30T23:43:16.128Z,7.03
2023-01-30T23:48:15.116Z,4.45
2023-01-30T23:53:13.944Z,4.75
2023-01-30T23:58:12.668Z,7.75
